createdAt,value
2018-12-26T00:01:09.798Z,75.40
2018-12-26T00:03:40.512Z,75.60
2018-12-26T00:06:11.123Z,74.90
2018-12-26T00:08:42.645Z,74.90
2018-12-26T00:11:13.019Z,74.90
2018-12-26T00:13:44.113Z,75.00
2018-12-26T00:16:14.432Z,75.40
2018-12-26T00:18:44.991Z,75.50
2018-12-26T00:21:15.424Z,75.00
2018-12-26T00:23:45.769Z,75.10
2018-12-26T00:26:16.213Z,75.20
2018-12-26T00:28:46.873Z,75.20
2018-12-26T00:31:17.202Z,75.20
2018-12-26T00:33:47.934Z,75.10
2018-12-26T00:36:18.258Z,75.40
2018-12-26T00:38:48.892Z,75.20
2018-12-26T00:41:19.515Z,75.30
2018-12-26T00:43:49.870Z,75.60
2018-12-26T00:46:20.190Z,76.00
2018-12-26T00:48:50.554Z,75.00
2018-12-26T00:51:22.426Z,75.20
2018-12-26T00:54:01.491Z,75.10
2018-12-26T00:56:31.814Z,75.20
2018-12-26T00:59:02.923Z,75.40
2018-12-26T01:01:33.313Z,75.40
2018-12-26T01:04:03.635Z,75.40
2018-12-26T01:06:34.622Z,75.50
2018-12-26T01:09:07.586Z,75.10
2018-12-26T01:11:37.939Z,75.50
2018-12-26T01:14:08.261Z,75.90
2018-12-26T01:16:38.759Z,75.90
2018-12-26T01:19:09.393Z,75.70
2018-12-26T01:21:40.146Z,75.70
2018-12-26T01:24:10.910Z,75.30
2018-12-26T01:26:41.230Z,75.40
2018-12-26T01:29:11.928Z,75.70
2018-12-26T01:31:42.266Z,75.80
2018-12-26T01:34:12.879Z,76.00
2018-12-26T01:36:43.563Z,76.50
2018-12-26T01:39:14.517Z,76.70
2018-12-26T01:41:44.852Z,76.80
2018-12-26T01:44:15.836Z,76.60
2018-12-26T01:46:46.346Z,76.70
2018-12-26T01:49:16.688Z,77.10
2018-12-26T01:51:47.006Z,77.20
2018-12-26T01:54:17.692Z,77.00
2018-12-26T01:56:48.044Z,77.10
2018-12-26T01:59:18.566Z,77.10
2018-12-26T02:01:48.913Z,77.60
2018-12-26T02:04:19.308Z,76.80
2018-12-26T02:06:49.648Z,77.10
2018-12-26T02:09:20.773Z,76.60
2018-12-26T02:11:51.778Z,76.80
2018-12-26T02:14:22.675Z,76.30
2018-12-26T02:16:53.711Z,77.10
2018-12-26T02:19:24.005Z,76.70
2018-12-26T02:21:54.347Z,76.40
2018-12-26T02:24:27.736Z,76.70
2018-12-26T02:26:58.052Z,76.90
2018-12-26T02:29:28.679Z,76.60
2018-12-26T02:31:59.318Z,77.00
2018-12-26T02:34:29.636Z,76.50
2018-12-26T02:37:00.256Z,77.50
2018-12-26T02:39:30.987Z,77.00
2018-12-26T02:42:01.586Z,76.80
2018-12-26T02:44:32.270Z,77.40
2018-12-26T02:47:03.039Z,77.60
2018-12-26T02:49:33.770Z,77.60
2018-12-26T02:52:04.085Z,77.50
2018-12-26T02:54:34.545Z,77.50
2018-12-26T02:57:05.134Z,77.50
2018-12-26T02:59:35.455Z,77.50
2018-12-26T03:02:06.237Z,77.50
2018-12-26T03:04:36.557Z,77.50
2018-12-26T03:07:07.259Z,77.50
2018-12-26T03:09:37.619Z,78.30
2018-12-26T03:12:08.340Z,78.30
2018-12-26T03:14:38.698Z,78.50
2018-12-26T03:17:09.056Z,78.40
2018-12-26T03:19:39.430Z,79.50
2018-12-26T03:22:09.748Z,79.00
2018-12-26T03:24:40.231Z,78.80
2018-12-26T03:27:10.584Z,78.90
2018-12-26T03:29:40.904Z,78.50
2018-12-26T03:32:11.306Z,79.00
2018-12-26T03:34:41.639Z,79.30
2018-12-26T03:37:12.256Z,79.00
2018-12-26T03:39:43.137Z,79.30
2018-12-26T03:42:13.833Z,79.10
2018-12-26T03:44:44.161Z,79.50
2018-12-26T03:47:14.532Z,79.20
2018-12-26T03:49:45.127Z,79.30
2018-12-26T03:52:15.455Z,78.40
2018-12-26T03:54:46.504Z,79.20
2018-12-26T03:57:17.009Z,79.30
2018-12-26T03:59:47.729Z,79.20
2018-12-26T04:02:18.476Z,79.20
2018-12-26T04:04:48.837Z,79.00
2018-12-26T04:07:19.167Z,79.30
2018-12-26T04:09:49.924Z,79.40
2018-12-26T04:12:20.523Z,79.50
2018-12-26T04:14:51.186Z,79.50
2018-12-26T04:17:21.875Z,79.70
2018-12-26T04:19:52.781Z,79.60
2018-12-26T04:22:23.479Z,79.10
2018-12-26T04:24:53.869Z,79.20
2018-12-26T04:27:24.217Z,79.20
2018-12-26T04:29:54.843Z,79.10
2018-12-26T04:32:25.650Z,79.00
2018-12-26T04:34:56.400Z,79.40
2018-12-26T04:37:26.726Z,79.80
2018-12-26T04:39:57.150Z,79.80
2018-12-26T04:42:27.479Z,79.90
2018-12-26T04:44:57.816Z,80.20
2018-12-26T04:47:28.518Z,80.90
2018-12-26T04:49:58.968Z,80.40
2018-12-26T04:52:29.279Z,80.50
2018-12-26T04:54:59.704Z,81.30
2018-12-26T04:57:33.057Z,81.00
2018-12-26T05:00:05.229Z,80.40
2018-12-26T05:02:35.590Z,80.60
2018-12-26T05:05:06.289Z,81.10
2018-12-26T05:07:37.006Z,81.70
2018-12-26T05:10:08.059Z,82.30
2018-12-26T05:12:38.771Z,83.60
2018-12-26T05:15:09.818Z,84.20
2018-12-26T05:17:40.761Z,84.20
2018-12-26T05:20:11.218Z,84.70
2018-12-26T05:22:41.822Z,85.30
2018-12-26T05:25:12.333Z,86.00
2018-12-26T05:27:43.251Z,86.40
2018-12-26T05:30:13.899Z,86.00
2018-12-26T05:32:44.259Z,86.50
2018-12-26T05:35:14.622Z,86.40
2018-12-26T05:37:45.317Z,86.50
2018-12-26T05:40:16.059Z,86.40
2018-12-26T05:42:46.666Z,86.60
2018-12-26T05:45:17.701Z,86.70
2018-12-26T05:47:48.076Z,86.70
2018-12-26T05:50:18.433Z,87.30
2018-12-26T05:52:48.765Z,87.10
2018-12-26T05:55:19.926Z,87.50
2018-12-26T05:57:50.289Z,88.00
2018-12-26T06:00:20.618Z,87.60
2018-12-26T06:02:51.311Z,88.00
2018-12-26T06:05:22.009Z,88.50
2018-12-26T06:07:53.088Z,88.60
2018-12-26T06:10:23.672Z,88.50
2018-12-26T06:12:54.003Z,88.90
2018-12-26T06:15:25.420Z,88.80
2018-12-26T06:17:56.129Z,89.40
2018-12-26T06:20:26.781Z,89.80
2018-12-26T06:22:57.131Z,90.00
2018-12-26T06:25:27.612Z,90.10
2018-12-26T06:27:58.021Z,90.40
2018-12-26T06:30:28.690Z,90.80
2018-12-26T06:32:59.443Z,90.80
2018-12-26T06:35:30.175Z,91.20
2018-12-26T06:38:01.560Z,91.50
2018-12-26T06:40:32.599Z,91.50
2018-12-26T06:43:02.970Z,91.70
2018-12-26T06:45:33.663Z,91.90
2018-12-26T06:48:04.365Z,92.20
2018-12-26T06:50:35.091Z,92.20
2018-12-26T06:53:05.740Z,92.40
2018-12-26T06:55:36.139Z,92.30
2018-12-26T06:58:06.469Z,92.40
2018-12-26T07:00:37.174Z,92.80
2018-12-26T07:03:07.536Z,92.70
2018-12-26T07:05:37.863Z,92.80
2018-12-26T07:08:08.191Z,93.20
2018-12-26T07:10:38.568Z,93.70
2018-12-26T07:13:08.898Z,93.70
2018-12-26T07:15:39.253Z,93.80
2018-12-26T07:18:09.931Z,93.90
2018-12-26T07:20:40.691Z,94.20
2018-12-26T07:23:11.033Z,94.10
2018-12-26T07:25:41.718Z,94.20
2018-12-26T07:28:12.349Z,94.30
2018-12-26T07:30:42.762Z,94.50
2018-12-26T07:33:13.401Z,94.60
2018-12-26T07:35:44.034Z,94.80
2018-12-26T07:38:14.993Z,94.80
2018-12-26T07:40:45.385Z,94.70
2018-12-26T07:43:15.711Z,94.80
2018-12-26T07:45:46.415Z,94.90
2018-12-26T07:48:16.792Z,94.70
2018-12-26T07:50:47.790Z,94.60
2018-12-26T07:53:18.128Z,94.60
2018-12-26T07:55:48.506Z,94.40
2018-12-26T07:58:19.253Z,94.50
2018-12-26T08:00:49.666Z,94.50
2018-12-26T08:03:20.034Z,94.60
2018-12-26T08:05:50.932Z,94.50
2018-12-26T08:08:21.290Z,94.50
2018-12-26T08:10:51.668Z,94.40
2018-12-26T08:13:22.002Z,94.20
2018-12-26T08:15:52.353Z,94.50
2018-12-26T08:18:22.729Z,94.70
2018-12-26T08:20:53.952Z,95.10
2018-12-26T08:23:24.781Z,95.00
2018-12-26T08:25:55.993Z,94.90
2018-12-26T08:28:27.055Z,95.10
2018-12-26T08:30:57.793Z,95.20
2018-12-26T08:33:28.178Z,95.50
2018-12-26T08:35:58.852Z,95.70
2018-12-26T08:38:29.183Z,96.00
2018-12-26T08:40:59.863Z,96.20
2018-12-26T08:43:30.197Z,96.20
2018-12-26T08:46:00.516Z,96.00
2018-12-26T08:48:31.200Z,96.00
2018-12-26T08:51:01.836Z,96.10
2018-12-26T08:53:32.481Z,96.20
2018-12-26T08:56:02.941Z,96.20
2018-12-26T08:58:35.246Z,96.20
2018-12-26T09:01:05.775Z,96.80
2018-12-26T09:03:36.426Z,96.90
2018-12-26T09:06:07.044Z,97.10
2018-12-26T09:08:37.716Z,97.00
2018-12-26T09:11:08.125Z,97.10
2018-12-26T09:13:38.455Z,97.10
2018-12-26T09:16:09.175Z,97.00
2018-12-26T09:18:39.627Z,96.80
2018-12-26T09:21:09.975Z,96.70
2018-12-26T09:23:40.334Z,96.60
2018-12-26T09:26:11.127Z,96.30
2018-12-26T09:28:43.869Z,96.30
2018-12-26T09:31:13.574Z,96.30
2018-12-26T09:33:44.229Z,96.20
2018-12-26T09:36:15.069Z,96.30
2018-12-26T09:38:45.399Z,96.30
2018-12-26T09:41:15.796Z,96.30
2018-12-26T09:43:46.153Z,96.30
2018-12-26T09:46:16.823Z,96.20
2018-12-26T09:48:47.855Z,96.30
2018-12-26T09:51:18.213Z,96.70
2018-12-26T09:53:50.191Z,96.90
2018-12-26T09:56:21.054Z,96.70
2018-12-26T09:58:52.573Z,96.70
2018-12-26T10:01:23.445Z,97.00
2018-12-26T10:03:54.178Z,96.90
2018-12-26T10:06:24.785Z,96.80
2018-12-26T10:08:55.480Z,97.10
2018-12-26T10:11:26.211Z,97.30
2018-12-26T10:13:57.157Z,97.30
2018-12-26T10:16:27.895Z,97.40
2018-12-26T10:18:58.299Z,97.60
2018-12-26T10:21:28.657Z,97.60
2018-12-26T10:23:59.007Z,97.80
2018-12-26T10:26:29.715Z,98.10
2018-12-26T10:29:00.999Z,98.30
2018-12-26T10:31:31.957Z,98.30
2018-12-26T10:34:02.305Z,98.30
2018-12-26T10:36:32.657Z,98.50
2018-12-26T10:39:03.932Z,98.40
2018-12-26T10:41:34.314Z,98.60
2018-12-26T10:44:04.651Z,98.50
2018-12-26T10:46:34.997Z,98.60
2018-12-26T10:49:05.727Z,98.50
2018-12-26T10:52:46.516Z,98.30
2018-12-26T10:55:16.933Z,98.60
2018-12-26T10:57:47.569Z,98.50
2018-12-26T11:00:17.899Z,98.50
2018-12-26T11:02:48.671Z,98.50
2018-12-26T11:05:18.995Z,98.30
2018-12-26T11:07:49.691Z,98.30
2018-12-26T11:10:20.335Z,98.50
2018-12-26T11:12:50.685Z,98.60
2018-12-26T11:15:21.379Z,98.70
2018-12-26T11:17:52.254Z,98.70
2018-12-26T11:20:22.618Z,98.60
2018-12-26T11:22:53.274Z,98.70
2018-12-26T11:25:24.437Z,98.90
2018-12-26T11:27:54.763Z,99.10
2018-12-26T11:30:25.109Z,99.20
2018-12-26T11:32:55.513Z,99.30
2018-12-26T11:35:26.547Z,99.70
2018-12-26T11:37:56.905Z,99.80
2018-12-26T11:40:27.730Z,99.90
2018-12-26T11:42:58.060Z,99.90
2018-12-26T11:45:28.457Z,99.90
2018-12-26T11:47:59.147Z,99.90
2018-12-26T11:50:29.756Z,99.90
2018-12-26T11:53:00.515Z,99.90
2018-12-26T11:55:31.216Z,99.90
2018-12-26T11:58:01.571Z,99.90
2018-12-26T12:00:32.456Z,99.90
2018-12-26T12:03:03.237Z,99.90
2018-12-26T12:05:33.617Z,99.90
2018-12-26T12:08:03.974Z,99.90
2018-12-26T12:10:34.331Z,99.90
2018-12-26T12:13:04.663Z,99.90
2018-12-26T12:15:35.050Z,99.90
2018-12-26T12:18:05.429Z,99.90
2018-12-26T12:20:36.061Z,99.90
2018-12-26T12:23:06.787Z,99.90
2018-12-26T12:25:37.527Z,99.90
2018-12-26T12:28:07.867Z,99.90
2018-12-26T12:30:38.197Z,99.90
2018-12-26T12:33:08.885Z,99.90
2018-12-26T12:35:39.628Z,99.90
2018-12-26T12:38:10.544Z,99.90
2018-12-26T12:40:41.005Z,99.90
2018-12-26T12:43:12.339Z,99.90
2018-12-26T12:45:43.067Z,99.90
2018-12-26T12:48:13.472Z,99.90
2018-12-26T12:50:44.123Z,99.90
2018-12-26T12:53:14.457Z,99.90
2018-12-26T12:55:45.681Z,99.90
2018-12-26T12:58:16.641Z,99.90
2018-12-26T13:00:47.299Z,99.90
2018-12-26T13:03:17.668Z,99.90
2018-12-26T13:05:48.002Z,99.90
2018-12-26T13:08:18.719Z,99.90
2018-12-26T13:10:49.414Z,99.90
2018-12-26T13:13:20.134Z,99.90
2018-12-26T13:15:50.494Z,99.90
2018-12-26T13:18:21.357Z,99.90
2018-12-26T13:20:51.770Z,99.90
2018-12-26T13:23:22.125Z,99.90
2018-12-26T13:25:52.529Z,99.90
2018-12-26T13:28:23.230Z,99.90
2018-12-26T13:30:53.581Z,99.90
2018-12-26T13:33:25.637Z,99.90
2018-12-26T13:35:55.970Z,99.90
2018-12-26T13:38:26.325Z,99.90
2018-12-26T13:40:57.326Z,99.90
2018-12-26T13:43:27.679Z,99.90
2018-12-26T13:45:58.034Z,99.90
2018-12-26T13:48:28.849Z,99.90
2018-12-26T13:50:59.182Z,99.90
2018-12-26T13:53:29.656Z,99.90
2018-12-26T13:56:00.445Z,99.90
2018-12-26T13:58:31.148Z,99.90
2018-12-26T14:01:03.021Z,99.90
2018-12-26T14:03:33.691Z,99.90
2018-12-26T14:06:04.576Z,99.90
2018-12-26T14:08:34.908Z,99.90
2018-12-26T14:11:05.364Z,99.90
2018-12-26T14:13:36.062Z,99.90
2018-12-26T14:16:06.698Z,99.90
2018-12-26T14:18:37.536Z,99.90
2018-12-26T14:21:07.867Z,99.90
2018-12-26T14:23:38.197Z,99.90
2018-12-26T14:26:08.975Z,99.90
2018-12-26T14:28:39.330Z,99.90
2018-12-26T14:31:09.660Z,99.90
2018-12-26T14:33:40.394Z,99.90
2018-12-26T14:36:10.752Z,99.90
2018-12-26T14:38:41.800Z,99.90
2018-12-26T14:41:12.178Z,99.90
2018-12-26T14:43:42.533Z,99.90
2018-12-26T14:46:13.196Z,99.90
2018-12-26T14:48:43.630Z,99.90
2018-12-26T14:51:13.991Z,99.90
2018-12-26T14:53:44.683Z,99.90
2018-12-26T14:56:15.017Z,99.90
2018-12-26T14:58:45.375Z,99.90
2018-12-26T15:01:15.725Z,99.90
2018-12-26T15:03:46.478Z,99.90
2018-12-26T15:06:17.192Z,99.90
2018-12-26T15:08:47.728Z,99.90
2018-12-26T15:11:18.113Z,99.90
2018-12-26T15:14:08.180Z,99.90
2018-12-26T15:16:51.825Z,99.90
2018-12-26T15:19:41.577Z,99.90
2018-12-26T15:22:26.854Z,99.90
2018-12-26T15:25:16.960Z,99.90
2018-12-26T15:28:00.115Z,99.90
2018-12-26T15:30:50.194Z,99.90
2018-12-26T15:33:33.111Z,99.90
2018-12-26T15:36:23.207Z,99.90
2018-12-26T15:39:07.800Z,99.90
2018-12-26T15:41:57.827Z,99.90
2018-12-26T15:44:42.635Z,99.90
2018-12-26T15:47:32.722Z,99.90
2018-12-26T15:50:17.462Z,99.90
2018-12-26T15:57:07.272Z,99.90
2018-12-26T15:59:57.418Z,99.90
2018-12-26T16:02:40.434Z,99.90
2018-12-26T16:05:30.192Z,99.90
2018-12-26T16:08:14.532Z,99.90
2018-12-26T16:11:04.989Z,99.90
2018-12-26T16:13:47.528Z,99.90
2018-12-26T16:16:37.653Z,99.90
2018-12-26T16:19:22.075Z,99.90
2018-12-26T16:22:11.836Z,99.90
2018-12-26T16:24:54.234Z,99.90
2018-12-26T16:27:44.256Z,99.90
2018-12-26T16:30:25.147Z,99.90
2018-12-26T16:36:16.602Z,99.90
2018-12-26T16:38:46.969Z,99.90
2018-12-26T16:41:36.749Z,99.90
2018-12-26T16:44:19.769Z,99.90
2018-12-26T16:47:02.960Z,99.90
2018-12-26T16:49:52.894Z,99.90
2018-12-26T16:52:35.736Z,99.90
2018-12-26T16:58:52.790Z,99.90
2018-12-26T17:01:42.560Z,99.90
2018-12-26T17:04:25.099Z,99.90
2018-12-26T17:07:14.855Z,99.90
2018-12-26T17:09:58.363Z,99.90
2018-12-26T17:12:48.119Z,99.90
2018-12-26T17:15:32.663Z,99.90
2018-12-26T17:18:22.442Z,99.90
2018-12-26T17:21:05.238Z,99.90
2018-12-26T17:26:56.551Z,99.90
2018-12-26T17:29:46.337Z,99.90
2018-12-26T17:32:28.712Z,99.90
2018-12-26T17:35:18.815Z,99.90
2018-12-26T17:38:01.697Z,99.90
2018-12-26T17:40:51.459Z,99.90
2018-12-26T17:43:36.080Z,99.90
2018-12-26T17:46:18.767Z,99.90
2018-12-26T17:49:08.615Z,99.90
2018-12-26T17:51:53.144Z,99.90
2018-12-26T17:55:04.263Z,99.90
2018-12-26T17:57:47.335Z,99.90
2018-12-26T18:04:06.247Z,99.90
2018-12-26T18:06:56.307Z,99.90
2018-12-26T18:09:38.973Z,99.90
2018-12-26T18:12:28.995Z,99.90
2018-12-26T18:15:09.967Z,99.90
2018-12-26T18:21:01.650Z,99.90
2018-12-26T18:23:51.434Z,99.90
2018-12-26T18:26:33.722Z,99.90
2018-12-26T18:29:23.838Z,99.90
2018-12-26T18:32:06.306Z,99.90
2018-12-26T18:34:56.342Z,99.90
2018-12-26T18:37:37.326Z,99.90
2018-12-26T18:40:27.116Z,99.90
2018-12-26T18:43:11.342Z,99.90
2018-12-26T18:46:01.127Z,99.90
2018-12-26T18:48:45.140Z,99.90
2018-12-26T18:51:35.274Z,99.90
2018-12-26T18:54:18.358Z,99.90
2018-12-26T18:57:08.597Z,99.90
2018-12-26T18:59:51.277Z,99.90
2018-12-26T19:02:41.321Z,99.90
2018-12-26T19:05:24.104Z,99.90
2018-12-26T19:08:13.902Z,99.90
2018-12-26T19:10:56.933Z,99.90
2018-12-26T19:13:46.718Z,99.90
2018-12-26T19:16:29.655Z,99.90
2018-12-26T19:19:20.067Z,99.90
2018-12-26T19:22:03.108Z,99.90
2018-12-26T19:24:52.860Z,99.90
2018-12-26T19:27:36.288Z,99.90
2018-12-26T19:30:26.361Z,99.90
2018-12-26T19:33:09.165Z,99.90
2018-12-26T19:39:26.406Z,99.90
2018-12-26T19:42:16.467Z,99.90
2018-12-26T19:45:00.872Z,99.90
2018-12-26T19:47:51.298Z,99.90
2018-12-26T19:50:35.672Z,99.90
2018-12-26T19:53:25.453Z,99.90
2018-12-26T19:56:07.845Z,99.90
2018-12-26T19:58:57.630Z,99.90
2018-12-26T20:01:48.122Z,99.90
2018-12-26T20:04:32.322Z,99.90
2018-12-26T20:07:15.051Z,99.90
2018-12-26T20:10:25.861Z,99.90
2018-12-26T20:13:06.533Z,99.90
2018-12-26T20:15:56.619Z,99.90
2018-12-26T20:18:39.209Z,99.90
2018-12-26T20:24:55.901Z,99.90
2018-12-26T20:27:46.058Z,99.90
2018-12-26T20:30:35.879Z,99.90
2018-12-26T20:33:18.774Z,99.90
2018-12-26T20:36:08.566Z,99.90
2018-12-26T20:38:50.842Z,99.90
2018-12-26T20:41:40.979Z,99.90
2018-12-26T20:44:25.460Z,99.90
2018-12-26T20:47:15.269Z,99.90
2018-12-26T20:49:59.853Z,99.90
2018-12-26T20:52:49.943Z,99.90
2018-12-26T20:55:32.978Z,99.90
2018-12-26T20:58:22.778Z,99.90
2018-12-26T21:01:03.450Z,99.90
2018-12-26T21:03:46.282Z,99.90
2018-12-26T21:06:36.062Z,99.90
2018-12-26T21:09:20.784Z,99.90
2018-12-26T21:12:10.568Z,99.90
2018-12-26T21:14:54.047Z,99.90
2018-12-26T21:17:44.087Z,99.90
2018-12-26T21:20:26.913Z,99.90
2018-12-26T21:23:16.676Z,99.90
2018-12-26T21:25:59.542Z,99.90
2018-12-26T21:28:42.294Z,99.90
2018-12-26T21:31:34.065Z,99.90
2018-12-26T21:34:36.232Z,99.90
2018-12-26T21:40:34.078Z,99.90
2018-12-26T21:43:24.070Z,99.90
2018-12-26T21:46:07.071Z,99.90
2018-12-26T21:48:56.966Z,99.90
2018-12-26T21:51:39.999Z,99.90
2018-12-26T21:54:29.789Z,99.90
2018-12-26T21:57:31.552Z,99.90
2018-12-26T22:00:21.635Z,99.90
2018-12-26T22:03:04.850Z,99.90
2018-12-26T22:05:55.233Z,99.90
2018-12-26T22:08:40.265Z,99.90
2018-12-26T22:11:30.061Z,99.90
2018-12-26T22:14:13.179Z,99.90
2018-12-26T22:17:03.238Z,99.90
2018-12-26T22:19:46.172Z,99.90
2018-12-26T22:22:55.092Z,99.90
2018-12-26T22:25:39.559Z,99.90
2018-12-26T22:28:22.247Z,99.90
2018-12-26T22:31:13.846Z,99.90
2018-12-26T22:33:56.797Z,99.90
2018-12-26T22:36:46.893Z,99.90
2018-12-26T22:39:29.553Z,99.90
2018-12-26T22:42:19.312Z,99.90
2018-12-26T22:45:01.754Z,99.90
2018-12-26T22:47:51.920Z,99.90
2018-12-26T22:50:35.875Z,99.90
2018-12-26T22:53:25.631Z,99.90
2018-12-26T22:56:10.355Z,99.90
2018-12-26T22:59:00.454Z,99.90
2018-12-26T23:01:43.580Z,99.90
2018-12-26T23:04:33.421Z,99.90
2018-12-26T23:07:18.420Z,99.90
2018-12-26T23:10:08.206Z,99.90
2018-12-26T23:12:51.294Z,99.90
2018-12-26T23:18:42.809Z,99.90
2018-12-26T23:21:32.661Z,99.90
2018-12-26T23:24:15.997Z,99.90
2018-12-26T23:26:58.571Z,99.90
2018-12-26T23:29:48.646Z,99.90
2018-12-26T23:32:31.854Z,99.90
2018-12-26T23:35:21.645Z,99.90
2018-12-26T23:38:04.159Z,99.90
2018-12-26T23:40:54.219Z,99.90
2018-12-26T23:43:38.422Z,99.90
2018-12-26T23:46:28.482Z,99.90
2018-12-26T23:49:09.420Z,99.90
2018-12-26T23:51:52.882Z,99.90
2018-12-26T23:54:42.973Z,99.90
2018-12-26T23:57:25.324Z,99.90
